createdAt,value
2018-03-19T00:01:43.896Z,31.90
2018-03-19T00:04:15.859Z,31.80
2018-03-19T00:06:47.841Z,32.30
2018-03-19T00:09:19.028Z,31.70
2018-03-19T00:11:50.243Z,31.90
2018-03-19T00:14:21.629Z,32.30
2018-03-19T00:16:53.298Z,32.00
2018-03-19T00:19:24.551Z,32.20
2018-03-19T00:21:55.907Z,32.40
2018-03-19T00:24:27.153Z,32.50
2018-03-19T00:26:58.490Z,32.70
2018-03-19T00:29:29.739Z,32.70
2018-03-19T00:32:01.106Z,32.80
2018-03-19T00:34:32.356Z,33.10
2018-03-19T00:37:03.624Z,33.10
2018-03-19T00:39:34.868Z,33.20
2018-03-19T00:42:06.067Z,33.30
2018-03-19T00:44:38.179Z,33.80
2018-03-19T00:47:09.452Z,33.70
2018-03-19T00:49:40.691Z,33.80
2018-03-19T00:52:11.934Z,34.30
2018-03-19T00:54:43.185Z,34.30
2018-03-19T00:57:14.604Z,34.30
2018-03-19T00:59:45.777Z,34.20
2018-03-19T01:02:17.033Z,34.50
2018-03-19T01:04:48.268Z,34.90
2018-03-19T01:07:19.506Z,35.10
2018-03-19T01:09:50.771Z,35.00
2018-03-19T01:12:22.692Z,35.70
2018-03-19T01:14:53.968Z,35.20
2018-03-19T01:17:25.157Z,35.20
2018-03-19T01:19:56.364Z,35.30
2018-03-19T01:22:27.662Z,35.70
2018-03-19T01:24:58.896Z,35.90
2018-03-19T01:27:30.128Z,35.90
2018-03-19T01:30:01.349Z,35.90
2018-03-19T01:32:32.621Z,35.60
2018-03-19T01:35:03.830Z,35.60
2018-03-19T01:37:35.020Z,35.90
2018-03-19T01:40:06.989Z,36.40
2018-03-19T01:42:38.227Z,36.40
2018-03-19T01:45:09.450Z,36.50
2018-03-19T01:47:41.393Z,37.00
2018-03-19T01:50:13.396Z,37.10
2018-03-19T01:52:47.788Z,37.10
2018-03-19T01:55:19.019Z,37.10
2018-03-19T01:57:50.286Z,38.00
2018-03-19T02:00:21.547Z,37.40
2018-03-19T02:02:52.811Z,37.10
2018-03-19T02:05:24.340Z,37.30
2018-03-19T02:07:55.536Z,37.50
2018-03-19T02:10:27.039Z,37.20
2018-03-19T02:12:58.230Z,37.40
2018-03-19T02:15:29.536Z,37.60
2018-03-19T02:18:00.736Z,37.60
2018-03-19T02:20:32.676Z,38.20
2018-03-19T02:23:03.999Z,37.90
2018-03-19T02:25:35.247Z,38.00
2018-03-19T02:28:06.435Z,37.90
2018-03-19T02:30:38.508Z,38.10
2018-03-19T02:33:09.746Z,38.10
2018-03-19T02:35:41.712Z,38.40
2018-03-19T02:38:12.882Z,38.40
2018-03-19T02:40:44.082Z,38.40
2018-03-19T02:43:16.102Z,39.00
2018-03-19T02:45:47.454Z,38.80
2018-03-19T02:48:18.643Z,38.90
2018-03-19T02:50:49.888Z,38.90
2018-03-19T02:53:21.877Z,38.90
2018-03-19T02:55:53.125Z,38.80
2018-03-19T02:58:24.340Z,38.60
2018-03-19T03:00:56.300Z,39.20
2018-03-19T03:03:27.765Z,39.20
2018-03-19T03:05:58.952Z,39.30
2018-03-19T03:08:30.176Z,39.50
2018-03-19T03:11:01.355Z,39.40
2018-03-19T03:13:32.561Z,39.30
2018-03-19T03:16:03.781Z,39.50
2018-03-19T03:18:35.008Z,39.50
2018-03-19T03:21:06.943Z,39.50
2018-03-19T03:23:38.284Z,39.50
2018-03-19T03:26:09.480Z,39.50
2018-03-19T03:28:40.722Z,39.70
2018-03-19T03:31:11.930Z,39.90
2018-03-19T03:33:43.916Z,40.10
2018-03-19T03:36:15.172Z,40.10
2018-03-19T03:38:46.362Z,40.80
2018-03-19T03:41:17.615Z,40.40
2018-03-19T03:43:48.942Z,40.40
2018-03-19T03:46:20.871Z,40.40
2018-03-19T03:48:52.117Z,40.30
2018-03-19T03:51:23.337Z,40.40
2018-03-19T03:53:54.586Z,40.50
2018-03-19T03:56:25.956Z,40.70
2018-03-19T03:58:57.154Z,40.70
2018-03-19T04:01:29.127Z,41.00
2018-03-19T04:04:00.416Z,40.80
2018-03-19T04:06:31.650Z,41.00
2018-03-19T04:09:02.907Z,41.20
2018-03-19T04:11:34.301Z,41.20
2018-03-19T04:14:06.231Z,41.30
2018-03-19T04:16:37.486Z,41.30
2018-03-19T04:19:08.668Z,41.70
2018-03-19T04:21:40.258Z,41.90
2018-03-19T04:24:11.505Z,42.10
2018-03-19T04:26:42.744Z,42.20
2018-03-19T04:29:13.929Z,42.20
2018-03-19T04:31:45.134Z,42.40
2018-03-19T04:34:16.319Z,42.80
2018-03-19T04:36:47.548Z,43.40
2018-03-19T04:39:18.742Z,42.80
2018-03-19T04:41:49.994Z,43.10
2018-03-19T04:44:21.442Z,43.20
2018-03-19T04:46:52.712Z,43.50
2018-03-19T04:49:23.935Z,43.40
2018-03-19T04:51:55.130Z,43.60
2018-03-19T04:54:26.359Z,43.80
2018-03-19T04:56:57.564Z,43.90
2018-03-19T04:59:28.824Z,44.10
2018-03-19T05:02:00.091Z,44.50
2018-03-19T05:04:31.356Z,44.90
2018-03-19T05:07:03.363Z,45.10
2018-03-19T05:09:34.558Z,45.00
2018-03-19T05:12:06.169Z,43.70
2018-03-19T05:14:37.384Z,43.20
2018-03-19T05:17:08.711Z,42.90
2018-03-19T05:19:39.999Z,43.50
2018-03-19T05:22:11.190Z,44.10
2018-03-19T05:24:43.260Z,44.80
2018-03-19T05:27:15.306Z,45.20
2018-03-19T05:29:46.523Z,45.20
2018-03-19T05:32:17.783Z,45.10
2018-03-19T05:34:48.968Z,45.30
2018-03-19T05:37:20.259Z,45.80
2018-03-19T05:39:51.624Z,45.90
2018-03-19T05:42:22.885Z,45.80
2018-03-19T05:44:54.185Z,45.60
2018-03-19T05:47:25.428Z,45.50
2018-03-19T05:49:56.628Z,45.80
2018-03-19T05:52:28.579Z,45.80
2018-03-19T05:54:59.756Z,45.80
2018-03-19T05:57:30.973Z,45.60
2018-03-19T06:00:02.937Z,46.00
2018-03-19T06:02:34.233Z,46.00
2018-03-19T06:05:05.550Z,46.00
2018-03-19T06:07:37.658Z,46.00
2018-03-19T06:10:08.879Z,45.90
2018-03-19T06:12:40.149Z,46.10
2018-03-19T06:15:11.382Z,46.10
2018-03-19T06:17:43.557Z,45.70
2018-03-19T06:20:14.778Z,45.50
2018-03-19T06:22:46.349Z,45.40
2018-03-19T06:25:17.735Z,45.70
2018-03-19T06:27:49.688Z,46.00
2018-03-19T06:30:21.740Z,45.70
2018-03-19T06:32:52.990Z,45.10
2018-03-19T06:35:24.192Z,45.50
2018-03-19T06:37:55.856Z,45.20
2018-03-19T06:40:27.091Z,44.80
2018-03-19T06:42:58.462Z,44.30
2018-03-19T06:45:29.786Z,44.40
2018-03-19T06:48:01.064Z,43.90
2018-03-19T06:50:32.389Z,43.50
2018-03-19T06:53:03.605Z,43.50
2018-03-19T06:55:34.833Z,43.20
2018-03-19T06:58:06.824Z,42.30
2018-03-19T07:00:38.090Z,42.30
2018-03-19T07:03:09.408Z,42.00
2018-03-19T07:05:40.657Z,41.50
2018-03-19T07:08:11.957Z,40.60
2018-03-19T07:10:43.225Z,40.40
2018-03-19T07:13:14.553Z,40.00
2018-03-19T07:15:45.874Z,38.30
2018-03-19T07:18:17.164Z,37.90
2018-03-19T07:20:48.382Z,37.60
2018-03-19T07:23:19.651Z,37.40
2018-03-19T07:25:51.744Z,36.90
2018-03-19T07:28:23.047Z,36.90
2018-03-19T07:30:55.109Z,35.80
2018-03-19T07:33:26.359Z,35.80
2018-03-19T07:35:58.414Z,35.70
2018-03-19T07:38:29.664Z,35.30
2018-03-19T07:41:01.677Z,34.40
2018-03-19T07:43:33.024Z,34.30
2018-03-19T07:46:04.255Z,34.00
2018-03-19T07:48:35.467Z,34.40
2018-03-19T07:51:07.516Z,34.10
2018-03-19T07:53:39.590Z,34.10
2018-03-19T07:56:10.872Z,34.10
2018-03-19T07:58:42.057Z,33.50
2018-03-19T08:01:13.746Z,33.70
2018-03-19T08:03:44.999Z,33.20
2018-03-19T08:06:17.013Z,32.60
2018-03-19T08:08:48.201Z,32.60
2018-03-19T08:11:19.570Z,32.40
2018-03-19T08:13:51.117Z,32.40
2018-03-19T08:16:22.593Z,32.80
2018-03-19T08:18:53.859Z,32.50
2018-03-19T08:21:25.881Z,32.30
2018-03-19T08:23:57.078Z,32.30
2018-03-19T08:26:28.451Z,31.10
2018-03-19T08:28:59.677Z,31.10
2018-03-19T08:31:30.913Z,31.70
2018-03-19T08:34:02.928Z,31.80
2018-03-19T08:36:34.185Z,31.10
2018-03-19T08:39:05.493Z,30.70
2018-03-19T08:41:36.748Z,31.10
2018-03-19T08:44:08.334Z,30.90
2018-03-19T08:46:39.729Z,30.20
2018-03-19T08:49:11.678Z,29.50
2018-03-19T08:51:43.664Z,29.50
2018-03-19T08:54:14.941Z,29.30
2018-03-19T08:56:46.196Z,29.00
2018-03-19T08:59:17.419Z,29.20
2018-03-19T09:01:48.672Z,29.60
2018-03-19T09:04:20.043Z,30.00
2018-03-19T09:06:52.091Z,29.70
2018-03-19T09:09:23.317Z,29.70
2018-03-19T09:11:54.596Z,29.50
2018-03-19T09:14:26.876Z,29.40
2018-03-19T09:16:58.149Z,29.00
2018-03-19T09:19:29.521Z,28.60
2018-03-19T09:22:00.728Z,28.10
2018-03-19T09:24:32.698Z,27.90
2018-03-19T09:27:04.709Z,28.40
2018-03-19T09:29:36.121Z,28.40
2018-03-19T09:32:07.303Z,28.40
2018-03-19T09:34:38.535Z,28.00
2018-03-19T09:37:09.715Z,28.00
2018-03-19T09:39:40.994Z,28.00
2018-03-19T09:42:12.211Z,27.70
2018-03-19T09:44:43.424Z,27.00
2018-03-19T09:47:14.706Z,27.60
2018-03-19T09:49:47.049Z,27.70
2018-03-19T09:52:18.343Z,27.70
2018-03-19T09:54:50.445Z,27.70
2018-03-19T09:57:21.741Z,27.50
2018-03-19T09:59:52.977Z,26.90
2018-03-19T10:02:24.206Z,26.40
2018-03-19T10:04:55.498Z,26.70
2018-03-19T10:07:27.561Z,26.00
2018-03-19T10:09:58.752Z,26.10
2018-03-19T10:12:30.623Z,25.80
2018-03-19T10:15:02.093Z,26.40
2018-03-19T10:17:33.711Z,26.20
2018-03-19T10:20:04.892Z,26.00
2018-03-19T10:22:36.107Z,25.50
2018-03-19T10:25:07.285Z,25.90
2018-03-19T10:27:38.545Z,25.60
2018-03-19T10:30:09.748Z,24.90
2018-03-19T10:32:42.251Z,25.70
2018-03-19T10:35:13.496Z,25.70
2018-03-19T10:37:44.704Z,26.40
2018-03-19T10:40:15.949Z,25.80
2018-03-19T10:42:47.910Z,24.40
2018-03-19T10:45:19.185Z,24.40
2018-03-19T10:47:50.543Z,24.30
2018-03-19T10:50:22.024Z,24.80
2018-03-19T10:52:53.276Z,25.00
2018-03-19T10:55:24.535Z,24.70
2018-03-19T10:57:55.794Z,25.10
2018-03-19T11:00:27.774Z,26.70
2018-03-19T11:03:05.080Z,26.60
2018-03-19T11:05:42.449Z,26.40
2018-03-19T11:08:14.533Z,26.30
2018-03-19T11:10:45.720Z,26.30
2018-03-19T11:13:17.002Z,27.10
2018-03-19T11:15:48.270Z,27.00
2018-03-19T11:18:19.512Z,26.70
2018-03-19T11:20:50.730Z,27.00
2018-03-19T11:23:22.707Z,26.60
2018-03-19T11:25:53.883Z,26.50
2018-03-19T11:28:25.168Z,26.60
2018-03-19T11:30:56.361Z,26.40
2018-03-19T11:33:27.613Z,26.00
2018-03-19T11:35:58.935Z,26.50
2018-03-19T11:38:30.215Z,26.70
2018-03-19T11:41:01.425Z,26.00
2018-03-19T11:43:32.668Z,25.70
2018-03-19T11:46:03.921Z,26.00
2018-03-19T11:48:35.190Z,26.40
2018-03-19T11:51:06.462Z,26.60
2018-03-19T11:53:37.765Z,26.60
2018-03-19T11:56:09.075Z,26.60
2018-03-19T11:58:40.276Z,26.20
2018-03-19T12:01:11.489Z,25.80
2018-03-19T12:03:42.681Z,25.50
2018-03-19T12:06:14.044Z,25.80
2018-03-19T12:08:46.045Z,26.10
2018-03-19T12:11:17.350Z,26.00
2018-03-19T12:13:48.591Z,26.20
2018-03-19T12:16:20.582Z,26.20
2018-03-19T12:18:51.859Z,26.10
2018-03-19T12:21:23.865Z,26.50
2018-03-19T12:23:55.133Z,26.50
2018-03-19T12:26:26.365Z,26.30
2018-03-19T12:28:58.560Z,26.30
2018-03-19T12:31:30.455Z,26.30
2018-03-19T12:34:01.709Z,26.30
2018-03-19T12:36:33.374Z,25.90
2018-03-19T12:39:05.427Z,25.70
2018-03-19T12:41:36.672Z,25.60
2018-03-19T12:44:08.611Z,26.10
2018-03-19T12:46:39.840Z,26.10
2018-03-19T12:49:11.255Z,26.00
2018-03-19T12:51:43.188Z,24.70
2018-03-19T12:54:14.666Z,24.70
2018-03-19T12:56:46.745Z,25.00
2018-03-19T12:59:17.931Z,25.00
2018-03-19T13:01:49.209Z,25.00
2018-03-19T13:04:21.180Z,25.30
2018-03-19T13:06:53.156Z,24.60
2018-03-19T13:09:24.456Z,24.60
2018-03-19T13:11:55.681Z,24.70
2018-03-19T13:14:27.020Z,24.50
2018-03-19T13:16:58.242Z,26.80
2018-03-19T13:19:29.634Z,25.10
2018-03-19T13:22:00.835Z,23.70
2018-03-19T13:24:32.055Z,24.00
2018-03-19T13:27:04.011Z,24.10
2018-03-19T13:29:36.029Z,26.00
2018-03-19T13:32:07.246Z,25.90
2018-03-19T13:34:38.449Z,24.50
2018-03-19T13:37:10.457Z,23.60
2018-03-19T13:39:41.725Z,23.50
2018-03-19T13:42:12.974Z,23.90
2018-03-19T13:44:44.216Z,24.20
2018-03-19T13:47:15.414Z,24.10
2018-03-19T13:49:46.882Z,24.00
2018-03-19T13:52:18.282Z,25.80
2018-03-19T13:54:49.597Z,26.90
2018-03-19T13:57:21.019Z,25.10
2018-03-19T13:59:52.232Z,23.50
2018-03-19T14:02:24.761Z,23.40
2018-03-19T14:04:56.016Z,23.30
2018-03-19T14:07:28.079Z,22.50
2018-03-19T14:10:02.066Z,22.30
2018-03-19T14:12:33.581Z,22.80
2018-03-19T14:15:05.547Z,22.80
2018-03-19T14:17:37.487Z,23.80
2018-03-19T14:20:09.549Z,23.80
2018-03-19T14:22:40.811Z,23.70
2018-03-19T14:25:12.810Z,26.30
2018-03-19T14:27:44.212Z,26.00
2018-03-19T14:30:15.332Z,22.30
2018-03-19T14:32:46.562Z,22.30
2018-03-19T14:35:17.784Z,22.90
2018-03-19T14:37:49.074Z,24.20
2018-03-19T14:40:20.338Z,27.00
2018-03-19T14:42:52.307Z,24.50
2018-03-19T14:45:23.559Z,24.50
2018-03-19T14:47:55.062Z,24.20
2018-03-19T14:50:26.455Z,23.20
2018-03-19T14:52:57.722Z,25.50
2018-03-19T14:55:29.042Z,23.10
2018-03-19T14:58:00.255Z,24.50
2018-03-19T15:00:32.566Z,25.50
2018-03-19T15:03:03.777Z,25.00
2018-03-19T15:05:35.089Z,22.10
2018-03-19T15:08:12.792Z,21.50
2018-03-19T15:10:45.512Z,22.10
2018-03-19T15:13:17.573Z,22.70
2018-03-19T15:15:50.626Z,23.00
2018-03-19T15:18:21.984Z,23.00
2018-03-19T15:20:53.227Z,23.40
2018-03-19T15:23:24.478Z,23.80
2018-03-19T15:25:55.711Z,25.50
2018-03-19T15:28:27.647Z,25.10
2018-03-19T15:30:58.906Z,25.10
2018-03-19T15:33:30.144Z,25.60
2018-03-19T15:36:01.413Z,24.00
2018-03-19T15:38:32.650Z,24.00
2018-03-19T15:41:03.955Z,24.00
2018-03-19T15:43:35.203Z,23.90
2018-03-19T15:46:06.449Z,24.00
2018-03-19T15:48:37.678Z,24.30
2018-03-19T15:51:08.978Z,24.30
2018-03-19T15:53:40.170Z,24.40
2018-03-19T15:56:12.101Z,24.50
2018-03-19T15:58:44.218Z,25.40
2018-03-19T16:01:15.599Z,25.10
2018-03-19T16:03:47.540Z,25.70
2018-03-19T16:06:18.763Z,25.60
2018-03-19T16:08:50.012Z,25.70
2018-03-19T16:11:21.274Z,25.60
2018-03-19T16:13:52.524Z,25.60
2018-03-19T16:16:23.786Z,25.40
2018-03-19T16:18:55.766Z,25.10
2018-03-19T16:21:27.810Z,25.50
2018-03-19T16:23:59.006Z,25.50
2018-03-19T16:26:30.228Z,26.10
2018-03-19T16:29:02.249Z,25.90
2018-03-19T16:31:33.607Z,25.80
2018-03-19T16:34:04.959Z,26.00
2018-03-19T16:36:36.940Z,27.60
2018-03-19T16:39:08.885Z,26.30
2018-03-19T16:41:40.106Z,26.30
2018-03-19T16:44:11.405Z,26.60
2018-03-19T16:46:42.642Z,26.00
2018-03-19T16:49:13.882Z,26.20
2018-03-19T16:51:46.085Z,26.30
2018-03-19T16:54:17.378Z,26.30
2018-03-19T16:56:48.626Z,26.30
2018-03-19T16:59:20.726Z,26.80
2018-03-19T17:01:51.932Z,26.80
2018-03-19T17:04:23.183Z,27.00
2018-03-19T17:06:55.157Z,27.40
2018-03-19T17:09:26.454Z,27.40
2018-03-19T17:11:58.605Z,27.70
2018-03-19T17:14:29.830Z,27.90
2018-03-19T17:17:01.150Z,27.90
2018-03-19T17:19:33.120Z,28.30
2018-03-19T17:22:04.421Z,28.20
2018-03-19T17:24:35.628Z,28.20
2018-03-19T17:27:06.826Z,28.30
2018-03-19T17:29:38.194Z,28.60
2018-03-19T17:32:09.501Z,28.70
2018-03-19T17:34:40.752Z,28.70
2018-03-19T17:37:11.943Z,28.40
2018-03-19T17:39:43.201Z,28.50
2018-03-19T17:42:14.441Z,28.70
2018-03-19T17:44:45.665Z,28.90
2018-03-19T17:47:17.148Z,29.00
2018-03-19T17:49:48.391Z,29.10
2018-03-19T17:52:19.600Z,29.10
2018-03-19T17:54:51.627Z,29.40
2018-03-19T17:57:22.829Z,29.40
2018-03-19T17:59:54.125Z,29.20
2018-03-19T18:02:25.370Z,29.40
2018-03-19T18:04:56.640Z,29.40
2018-03-19T18:07:27.861Z,29.40
2018-03-19T18:09:59.052Z,29.70
2018-03-19T18:12:30.358Z,29.70
2018-03-19T18:15:01.604Z,29.60
2018-03-19T18:17:32.926Z,29.90
2018-03-19T18:20:04.125Z,30.00
2018-03-19T18:22:35.406Z,29.90
2018-03-19T18:25:06.732Z,30.00
2018-03-19T18:27:37.958Z,30.00
2018-03-19T18:30:09.201Z,30.00
2018-03-19T18:32:40.781Z,30.10
2018-03-19T18:35:12.059Z,30.20
2018-03-19T18:37:44.167Z,30.70
2018-03-19T18:40:15.827Z,30.70
2018-03-19T18:42:47.191Z,30.80
2018-03-19T18:45:19.715Z,31.00
2018-03-19T18:47:50.971Z,31.10
2018-03-19T18:50:22.209Z,31.10
2018-03-19T18:52:53.524Z,31.20
2018-03-19T18:55:24.960Z,31.20
2018-03-19T18:57:56.935Z,31.20
2018-03-19T19:00:28.933Z,31.90
2018-03-19T19:03:00.945Z,31.60
2018-03-19T19:05:32.240Z,31.50
2018-03-19T19:08:04.258Z,31.70
2018-03-19T19:10:35.415Z,31.70
2018-03-19T19:13:06.891Z,32.00
2018-03-19T19:15:38.141Z,31.60
2018-03-19T19:18:09.328Z,31.80
2018-03-19T19:20:40.753Z,32.00
2018-03-19T19:23:11.963Z,32.20
2018-03-19T19:25:44.012Z,32.60
2018-03-19T19:28:15.248Z,32.60
2018-03-19T19:30:46.476Z,33.60
2018-03-19T19:33:17.712Z,33.10
2018-03-19T19:35:49.763Z,33.60
2018-03-19T19:38:21.005Z,33.50
2018-03-19T19:40:52.482Z,33.90
2018-03-19T19:43:23.691Z,33.50
2018-03-19T19:45:54.891Z,33.40
2018-03-19T19:48:26.574Z,33.10
2018-03-19T19:50:58.501Z,32.70
2018-03-19T19:53:29.726Z,32.60
2018-03-19T19:56:00.968Z,32.60
2018-03-19T19:58:32.198Z,32.90
2018-03-19T20:01:03.428Z,33.20
2018-03-19T20:03:34.610Z,33.70
2018-03-19T20:06:05.972Z,33.60
2018-03-19T20:08:37.362Z,33.60
2018-03-19T20:11:08.578Z,33.40
2018-03-19T20:13:40.608Z,34.10
2018-03-19T20:16:11.888Z,34.10
2018-03-19T20:18:43.845Z,34.60
2018-03-19T20:21:16.017Z,34.60
2018-03-19T20:23:48.282Z,34.70
2018-03-19T20:26:19.478Z,34.70
2018-03-19T20:28:50.767Z,35.10
2018-03-19T20:31:22.013Z,35.50
2018-03-19T20:33:53.377Z,35.50
2018-03-19T20:36:24.666Z,35.90
2018-03-19T20:38:55.938Z,35.70
2018-03-19T20:41:27.163Z,35.90
2018-03-19T20:43:58.406Z,35.90
2018-03-19T20:46:29.690Z,36.10
2018-03-19T20:49:00.925Z,36.40
2018-03-19T20:51:32.141Z,36.50
2018-03-19T20:54:03.512Z,36.40
2018-03-19T20:56:35.521Z,36.30
2018-03-19T20:59:07.001Z,36.30
2018-03-19T21:01:38.278Z,36.80
2018-03-19T21:04:09.630Z,37.10
2018-03-19T21:06:43.236Z,37.70
2018-03-19T21:09:15.537Z,37.90
2018-03-19T21:11:46.891Z,37.90
2018-03-19T21:14:18.352Z,38.00
2018-03-19T21:16:50.627Z,38.10
2018-03-19T21:19:21.835Z,37.60
2018-03-19T21:21:53.035Z,37.20
2018-03-19T21:24:24.409Z,37.50
2018-03-19T21:26:56.401Z,39.60
2018-03-19T21:29:27.853Z,39.00
2018-03-19T21:31:59.142Z,39.10
2018-03-19T21:34:33.152Z,37.70
2018-03-19T21:37:05.831Z,38.30
2018-03-19T21:39:37.069Z,37.70
2018-03-19T21:42:08.392Z,37.90
2018-03-19T21:44:40.089Z,37.80
2018-03-19T21:47:11.362Z,37.80
2018-03-19T21:49:42.679Z,38.70
2018-03-19T21:52:15.163Z,39.40
2018-03-19T21:54:46.448Z,39.20
2018-03-19T21:57:17.660Z,38.80
2018-03-19T21:59:48.891Z,38.50
2018-03-19T22:02:20.861Z,39.60
2018-03-19T22:04:52.906Z,39.80
2018-03-19T22:07:24.424Z,39.70
2018-03-19T22:09:55.661Z,40.00
2018-03-19T22:12:27.201Z,40.00
2018-03-19T22:14:58.467Z,40.40
2018-03-19T22:17:29.781Z,40.60
2018-03-19T22:20:01.091Z,40.20
2018-03-19T22:22:32.351Z,40.20
2018-03-19T22:25:03.710Z,40.30
2018-03-19T22:27:34.942Z,40.30
2018-03-19T22:30:06.949Z,40.60
2018-03-19T22:32:38.237Z,40.60
2018-03-19T22:35:10.206Z,40.60
2018-03-19T22:37:41.458Z,40.50
2018-03-19T22:40:13.425Z,41.70
2018-03-19T22:42:45.428Z,41.30
2018-03-19T22:45:16.697Z,41.30
2018-03-19T22:47:47.923Z,41.10
2018-03-19T22:50:19.242Z,41.30
2018-03-19T22:52:50.491Z,41.50
2018-03-19T22:55:21.849Z,41.80
2018-03-19T22:57:53.216Z,42.00
2018-03-19T23:00:25.329Z,41.00
2018-03-19T23:02:56.568Z,40.90
2018-03-19T23:05:28.529Z,41.30
2018-03-19T23:07:59.751Z,41.20
2018-03-19T23:10:31.708Z,42.00
2018-03-19T23:13:03.664Z,41.70
2018-03-19T23:15:37.140Z,41.80
2018-03-19T23:18:08.347Z,41.70
2018-03-19T23:20:39.644Z,41.70
2018-03-19T23:23:11.727Z,40.80
2018-03-19T23:25:43.704Z,41.40
2018-03-19T23:28:15.685Z,41.30
2018-03-19T23:30:46.909Z,41.30
2018-03-19T23:33:18.887Z,41.40
2018-03-19T23:35:50.103Z,41.40
2018-03-19T23:38:21.356Z,41.90
2018-03-19T23:40:53.316Z,42.40
2018-03-19T23:43:25.254Z,42.50
2018-03-19T23:45:56.456Z,42.50
2018-03-19T23:48:27.723Z,42.20
2018-03-19T23:50:58.955Z,42.30
2018-03-19T23:53:30.165Z,42.30
2018-03-19T23:56:01.463Z,42.40
2018-03-19T23:58:32.966Z,42.80
